createdAt,value
2019-02-25T00:01:55.485Z,21.13
2019-02-25T00:04:25.835Z,21.73
2019-02-25T00:06:55.493Z,21.00
2019-02-25T00:09:25.750Z,21.87
2019-02-25T00:11:55.450Z,22.47
2019-02-25T00:14:25.670Z,22.53
2019-02-25T00:16:55.324Z,24.47
2019-02-25T00:19:25.698Z,22.23
2019-02-25T00:21:55.371Z,22.27
2019-02-25T00:24:25.632Z,23.27
2019-02-25T00:26:55.302Z,22.03
2019-02-25T00:29:25.534Z,21.23
2019-02-25T00:31:55.195Z,22.43
2019-02-25T00:34:25.434Z,20.47
2019-02-25T00:36:55.750Z,20.57
2019-02-25T00:39:25.447Z,21.97
2019-02-25T00:41:55.662Z,22.37
2019-02-25T00:44:25.362Z,21.62
2019-02-25T00:46:55.528Z,21.60
2019-02-25T00:49:25.232Z,21.00
2019-02-25T00:51:55.639Z,20.97
2019-02-25T00:54:25.319Z,20.47
2019-02-25T00:56:55.547Z,20.43
2019-02-25T00:59:25.243Z,20.57
2019-02-25T01:01:55.505Z,20.77
2019-02-25T01:04:25.819Z,20.67
2019-02-25T01:06:56.163Z,19.27
2019-02-25T01:09:26.535Z,19.90
2019-02-25T01:11:56.218Z,19.67
2019-02-25T01:14:26.450Z,20.33
2019-02-25T01:16:56.151Z,20.87
2019-02-25T01:19:26.359Z,18.90
2019-02-25T01:21:56.037Z,19.67
2019-02-25T01:24:26.286Z,19.27
2019-02-25T01:26:55.939Z,20.10
2019-02-25T01:29:26.170Z,20.23
2019-02-25T01:31:55.842Z,20.17
2019-02-25T01:34:26.115Z,19.50
2019-02-25T01:36:55.770Z,20.93
2019-02-25T01:39:25.918Z,19.80
2019-02-25T01:41:55.604Z,18.27
2019-02-25T01:44:25.906Z,19.30
2019-02-25T01:46:56.223Z,19.83
2019-02-25T01:49:26.575Z,18.77
2019-02-25T01:51:56.298Z,18.57
2019-02-25T01:54:26.546Z,18.80
2019-02-25T01:56:56.847Z,18.20
2019-02-25T01:59:26.547Z,17.73
2019-02-25T02:01:56.811Z,17.37
2019-02-25T02:04:26.495Z,18.67
2019-02-25T02:06:56.708Z,18.20
2019-02-25T02:09:26.410Z,17.77
2019-02-25T02:11:58.454Z,17.47
2019-02-25T02:14:28.128Z,17.50
2019-02-25T02:16:58.391Z,16.97
2019-02-25T02:19:28.078Z,17.30
2019-02-25T02:21:58.298Z,16.33
2019-02-25T02:24:27.971Z,16.20
2019-02-25T02:26:58.227Z,15.03
2019-02-25T02:29:27.904Z,14.93
2019-02-25T02:31:58.122Z,13.93
2019-02-25T02:34:28.439Z,13.80
2019-02-25T02:36:58.780Z,15.80
2019-02-25T02:39:28.452Z,13.07
2019-02-25T02:42:26.128Z,12.83
2019-02-25T02:44:58.856Z,12.30
2019-02-25T02:47:30.091Z,12.07
2019-02-25T02:50:00.651Z,11.77
2019-02-25T02:52:30.988Z,11.57
2019-02-25T02:55:01.316Z,11.43
2019-02-25T02:57:30.993Z,12.47
2019-02-25T03:00:00.559Z,11.40
2019-02-25T03:02:30.810Z,12.63
2019-02-25T03:05:00.476Z,11.03
2019-02-25T03:07:30.714Z,12.00
2019-02-25T03:10:00.361Z,11.43
2019-02-25T03:12:29.939Z,11.93
2019-02-25T03:15:00.405Z,12.73
2019-02-25T03:17:30.703Z,11.90
2019-02-25T03:20:01.074Z,11.97
2019-02-25T03:22:30.758Z,12.03
2019-02-25T03:25:00.992Z,11.93
2019-02-25T03:27:30.743Z,11.43
2019-02-25T03:30:00.952Z,11.17
2019-02-25T03:32:30.640Z,11.10
2019-02-25T03:35:00.883Z,12.47
2019-02-25T03:37:30.528Z,11.00
2019-02-25T03:40:00.743Z,11.80
2019-02-25T03:42:31.040Z,11.80
2019-02-25T03:45:00.725Z,12.20
2019-02-25T03:47:30.294Z,11.87
2019-02-25T03:50:00.519Z,13.47
2019-02-25T03:52:30.182Z,12.17
2019-02-25T03:55:00.591Z,12.90
2019-02-25T03:57:30.266Z,11.97
2019-02-25T04:00:00.435Z,12.30
2019-02-25T04:02:30.143Z,12.63
2019-02-25T04:05:00.363Z,12.67
2019-02-25T04:07:30.037Z,11.73
2019-02-25T04:10:00.285Z,13.17
2019-02-25T04:12:29.941Z,12.57
2019-02-25T04:15:00.376Z,13.50
2019-02-25T04:17:30.172Z,13.53
2019-02-25T04:19:59.718Z,13.47
2019-02-25T04:22:29.203Z,13.50
2019-02-25T04:24:59.456Z,13.63
2019-02-25T04:27:29.223Z,13.83
2019-02-25T04:29:58.806Z,13.47
2019-02-25T04:32:29.188Z,14.97
2019-02-25T04:34:59.533Z,14.33
2019-02-25T04:37:29.190Z,13.98
2019-02-25T04:39:59.415Z,14.23
2019-02-25T04:42:29.063Z,13.57
2019-02-25T04:44:58.654Z,14.40
2019-02-25T04:47:28.882Z,14.03
2019-02-25T04:49:59.187Z,13.70
2019-02-25T04:52:29.513Z,14.20
2019-02-25T04:54:59.851Z,15.33
2019-02-25T04:57:29.518Z,14.23
2019-02-25T04:59:59.737Z,14.37
2019-02-25T05:02:30.064Z,13.17
2019-02-25T05:04:59.740Z,13.30
2019-02-25T05:07:29.303Z,14.00
2019-02-25T05:09:59.542Z,13.80
2019-02-25T05:12:29.895Z,13.60
2019-02-25T05:14:59.596Z,14.30
2019-02-25T05:17:29.839Z,14.60
2019-02-25T05:20:00.297Z,14.93
2019-02-25T05:22:29.911Z,14.93
2019-02-25T05:25:00.476Z,13.90
2019-02-25T05:27:30.142Z,13.97
2019-02-25T05:29:59.819Z,13.43
2019-02-25T05:32:30.029Z,13.83
2019-02-25T05:35:00.488Z,14.77
2019-02-25T05:37:30.124Z,13.88
2019-02-25T05:40:00.355Z,14.10
2019-02-25T05:42:30.011Z,13.70
2019-02-25T05:44:59.618Z,14.80
2019-02-25T05:47:29.865Z,14.37
2019-02-25T05:50:00.295Z,14.20
2019-02-25T05:52:29.935Z,14.20
2019-02-25T05:55:00.322Z,16.13
2019-02-25T05:57:30.092Z,14.70
2019-02-25T06:00:00.501Z,14.47
2019-02-25T06:02:30.291Z,13.87
2019-02-25T06:05:00.548Z,15.57
2019-02-25T06:07:30.223Z,14.30
2019-02-25T06:09:59.799Z,14.03
2019-02-25T06:12:30.036Z,14.73
2019-02-25T06:15:00.457Z,14.30
2019-02-25T06:17:30.164Z,15.23
2019-02-25T06:20:00.387Z,14.97
2019-02-25T06:22:30.705Z,15.07
2019-02-25T06:25:00.480Z,15.17
2019-02-25T06:27:30.982Z,13.93
2019-02-25T06:30:00.731Z,14.23
2019-02-25T06:32:30.901Z,16.13
2019-02-25T06:35:00.711Z,15.83
2019-02-25T06:37:30.422Z,14.70
2019-02-25T06:40:00.001Z,15.37
2019-02-25T06:42:30.298Z,15.13
2019-02-25T06:45:00.670Z,15.87
2019-02-25T06:47:30.286Z,15.67
2019-02-25T06:50:00.553Z,16.73
2019-02-25T06:52:30.603Z,14.63
2019-02-25T06:55:00.824Z,15.33
2019-02-25T06:57:30.510Z,14.93
2019-02-25T07:00:00.744Z,15.37
2019-02-25T07:02:30.390Z,15.27
2019-02-25T07:05:28.616Z,15.97
2019-02-25T07:08:09.575Z,14.07
2019-02-25T07:10:49.951Z,15.27
2019-02-25T07:13:31.718Z,14.20
2019-02-25T07:16:25.809Z,14.93
2019-02-25T07:19:27.458Z,15.57
2019-02-25T07:22:19.523Z,15.33
2019-02-25T07:25:26.448Z,14.50
2019-02-25T07:28:20.906Z,14.80
2019-02-25T07:31:08.742Z,14.73
2019-02-25T07:33:51.327Z,13.70
2019-02-25T07:36:43.313Z,11.93
2019-02-25T07:39:34.835Z,12.30
2019-02-25T07:42:23.925Z,13.27
2019-02-25T07:45:25.047Z,20.77
2019-02-25T07:48:03.603Z,13.77
2019-02-25T07:50:59.132Z,14.13
2019-02-25T07:53:54.454Z,12.20
2019-02-25T07:56:41.731Z,13.40
2019-02-25T07:59:31.843Z,14.37
2019-02-25T08:02:28.922Z,14.60
2019-02-25T08:05:16.776Z,14.20
2019-02-25T08:08:06.107Z,14.03
2019-02-25T08:10:58.296Z,14.93
2019-02-25T08:13:50.370Z,15.60
2019-02-25T08:16:37.414Z,15.55
2019-02-25T08:19:32.905Z,15.87
2019-02-25T08:22:22.862Z,16.03
2019-02-25T08:25:14.775Z,14.30
2019-02-25T08:28:13.007Z,15.43
2019-02-25T08:31:04.715Z,15.07
2019-02-25T08:33:51.797Z,15.58
2019-02-25T08:37:07.083Z,14.57
2019-02-25T08:39:54.015Z,14.97
2019-02-25T08:42:37.643Z,16.30
2019-02-25T08:45:16.915Z,16.37
2019-02-25T08:48:02.756Z,16.43
2019-02-25T08:50:32.529Z,16.93
2019-02-25T08:53:02.124Z,15.93
2019-02-25T08:55:31.702Z,16.13
2019-02-25T08:58:01.356Z,17.60
2019-02-25T09:00:31.703Z,17.83
2019-02-25T09:03:02.095Z,16.83
2019-02-25T09:05:32.433Z,16.80
2019-02-25T09:08:02.768Z,17.23
2019-02-25T09:10:32.440Z,17.00
2019-02-25T09:13:02.718Z,16.93
2019-02-25T09:15:33.021Z,17.57
2019-02-25T09:18:01.622Z,18.47
2019-02-25T09:20:31.359Z,17.40
2019-02-25T09:23:01.607Z,17.30
2019-02-25T09:25:31.939Z,17.80
2019-02-25T09:28:01.640Z,17.07
2019-02-25T09:30:31.231Z,16.80
2019-02-25T09:33:01.487Z,16.47
2019-02-25T09:35:31.262Z,17.97
2019-02-25T09:38:00.845Z,17.83
2019-02-25T09:40:30.440Z,16.97
2019-02-25T09:43:00.019Z,17.10
2019-02-25T09:45:30.509Z,16.93
2019-02-25T09:48:00.182Z,17.30
2019-02-25T09:50:29.809Z,18.47
2019-02-25T09:53:00.055Z,16.57
2019-02-25T09:55:29.756Z,16.05
2019-02-25T09:57:59.355Z,17.13
2019-02-25T10:00:29.148Z,15.97
2019-02-25T10:02:59.523Z,16.30
2019-02-25T10:05:30.035Z,15.70
2019-02-25T10:07:59.731Z,16.20
2019-02-25T10:10:29.963Z,15.67
2019-02-25T10:13:00.334Z,16.20
2019-02-25T10:15:30.024Z,15.90
2019-02-25T10:18:00.282Z,16.43
2019-02-25T10:20:30.790Z,16.37
2019-02-25T10:23:01.039Z,16.13
2019-02-25T10:25:31.448Z,17.12
2019-02-25T10:28:01.802Z,16.53
2019-02-25T10:30:31.503Z,16.00
2019-02-25T10:33:01.755Z,16.27
2019-02-25T10:35:31.433Z,15.90
2019-02-25T10:38:03.192Z,16.47
2019-02-25T10:40:33.042Z,14.98
2019-02-25T10:43:03.256Z,16.73
2019-02-25T10:45:34.477Z,15.37
2019-02-25T10:48:04.943Z,14.07
2019-02-25T10:50:36.029Z,14.63
2019-02-25T10:53:06.480Z,14.97
2019-02-25T10:55:44.277Z,13.50
2019-02-25T10:58:11.596Z,14.03
2019-02-25T11:00:41.663Z,14.83
2019-02-25T11:03:15.170Z,13.67
2019-02-25T11:05:45.296Z,14.73
2019-02-25T11:08:16.758Z,14.20
2019-02-25T11:11:05.954Z,15.73
2019-02-25T11:13:36.651Z,15.00
2019-02-25T11:16:07.057Z,16.17
2019-02-25T11:18:37.444Z,17.17
2019-02-25T11:21:08.875Z,15.77
2019-02-25T11:23:39.016Z,15.90
2019-02-25T11:26:09.441Z,14.23
2019-02-25T11:28:41.242Z,14.23
2019-02-25T11:31:11.915Z,15.70
2019-02-25T11:33:44.619Z,15.40
2019-02-25T11:36:15.524Z,13.97
2019-02-25T11:38:45.391Z,12.37
2019-02-25T11:41:14.999Z,12.23
2019-02-25T11:43:47.671Z,12.27
2019-02-25T11:46:17.733Z,12.93
2019-02-25T11:48:48.115Z,12.43
2019-02-25T11:51:17.821Z,12.70
2019-02-25T11:53:48.259Z,12.20
2019-02-25T11:56:18.714Z,11.97
2019-02-25T11:58:49.111Z,12.00
2019-02-25T12:01:19.429Z,11.97
2019-02-25T12:03:50.015Z,12.50
2019-02-25T12:06:19.699Z,11.17
2019-02-25T12:08:50.336Z,9.97
2019-02-25T12:11:21.579Z,10.73
2019-02-25T12:13:52.109Z,11.10
2019-02-25T12:16:22.367Z,9.30
2019-02-25T12:18:54.208Z,9.50
2019-02-25T12:21:24.464Z,9.07
2019-02-25T12:23:54.799Z,10.27
2019-02-25T12:26:25.316Z,9.27
2019-02-25T12:28:55.723Z,9.30
2019-02-25T12:31:26.032Z,9.50
2019-02-25T12:33:56.561Z,9.07
2019-02-25T12:36:26.876Z,8.65
2019-02-25T12:38:56.758Z,8.20
2019-02-25T12:41:27.432Z,8.55
2019-02-25T12:43:57.271Z,8.30
2019-02-25T12:46:27.575Z,7.93
2019-02-25T12:48:57.223Z,8.00
2019-02-25T12:51:26.803Z,7.47
2019-02-25T12:53:57.032Z,8.27
2019-02-25T12:56:26.735Z,6.90
2019-02-25T12:58:56.299Z,7.00
2019-02-25T13:01:25.859Z,7.57
2019-02-25T13:03:56.112Z,7.30
2019-02-25T13:06:26.436Z,7.87
2019-02-25T13:08:56.779Z,7.50
2019-02-25T13:11:26.413Z,7.50
2019-02-25T13:13:55.970Z,8.13
2019-02-25T13:16:26.234Z,7.30
2019-02-25T13:18:55.981Z,7.37
2019-02-25T13:21:26.141Z,7.50
2019-02-25T13:23:56.947Z,7.60
2019-02-25T13:26:29.267Z,7.33
2019-02-25T13:28:58.958Z,8.13
2019-02-25T13:31:28.578Z,7.80
2019-02-25T13:33:58.187Z,8.10
2019-02-25T13:36:28.432Z,7.47
2019-02-25T13:38:58.118Z,7.33
2019-02-25T13:41:28.327Z,7.23
2019-02-25T13:43:59.067Z,7.13
2019-02-25T13:46:28.731Z,7.40
2019-02-25T13:48:58.329Z,7.23
2019-02-25T13:51:27.899Z,7.00
2019-02-25T13:53:58.152Z,6.70
2019-02-25T13:56:27.799Z,7.30
2019-02-25T13:58:58.082Z,9.57
2019-02-25T14:01:28.966Z,8.80
2019-02-25T14:03:59.301Z,7.60
2019-02-25T14:06:29.595Z,6.62
2019-02-25T14:09:00.031Z,7.40
2019-02-25T14:11:29.707Z,7.67
2019-02-25T14:13:59.907Z,8.10
2019-02-25T14:16:30.257Z,7.83
2019-02-25T14:19:00.588Z,7.80
2019-02-25T14:21:31.688Z,8.30
2019-02-25T14:24:02.124Z,7.90
2019-02-25T14:26:32.456Z,7.93
2019-02-25T14:29:02.114Z,8.20
2019-02-25T14:31:32.384Z,8.00
2019-02-25T14:34:04.282Z,8.27
2019-02-25T14:36:34.139Z,8.50
2019-02-25T14:39:05.204Z,8.47
2019-02-25T14:41:34.803Z,8.33
2019-02-25T14:44:05.211Z,8.23
2019-02-25T14:46:34.883Z,10.23
2019-02-25T14:49:04.759Z,9.20
2019-02-25T14:51:35.341Z,8.83
2019-02-25T14:54:05.795Z,8.77
2019-02-25T14:56:35.687Z,8.88
2019-02-25T14:59:07.665Z,8.47
2019-02-25T15:01:36.469Z,8.17
2019-02-25T15:04:06.692Z,9.00
2019-02-25T15:06:36.802Z,9.20
2019-02-25T15:09:10.370Z,10.10
2019-02-25T15:11:39.098Z,9.47
2019-02-25T15:14:10.694Z,10.43
2019-02-25T15:16:41.267Z,10.90
2019-02-25T15:19:10.967Z,10.37
2019-02-25T15:21:42.991Z,9.87
2019-02-25T15:24:14.270Z,10.13
2019-02-25T15:26:44.341Z,8.97
2019-02-25T15:29:14.839Z,9.40
2019-02-25T15:31:46.287Z,9.50
2019-02-25T15:34:17.235Z,8.63
2019-02-25T15:36:48.312Z,8.30
2019-02-25T15:39:18.179Z,8.73
2019-02-25T15:41:49.278Z,9.03
2019-02-25T15:44:20.637Z,9.03
2019-02-25T15:46:51.239Z,9.57
2019-02-25T15:49:24.397Z,10.03
2019-02-25T15:51:54.463Z,10.23
2019-02-25T15:54:24.764Z,9.67
2019-02-25T15:56:55.096Z,10.23
2019-02-25T15:59:31.887Z,10.53
2019-02-25T16:01:56.995Z,9.17
2019-02-25T16:04:27.873Z,10.10
2019-02-25T16:07:00.011Z,9.50
2019-02-25T16:09:31.495Z,38.73
2019-02-25T16:12:03.056Z,35.27
2019-02-25T16:14:33.551Z,9.30
2019-02-25T16:17:05.362Z,10.57
2019-02-25T16:19:42.618Z,11.23
2019-02-25T16:22:09.140Z,32.23
2019-02-25T16:24:38.243Z,17.27
2019-02-25T16:27:07.926Z,42.07
2019-02-25T16:29:37.487Z,23.83
2019-02-25T16:32:07.153Z,17.30
2019-02-25T16:34:38.212Z,9.30
2019-02-25T16:37:08.698Z,9.40
2019-02-25T16:39:38.259Z,13.07
2019-02-25T16:42:07.843Z,15.27
2019-02-25T16:44:38.103Z,14.83
2019-02-25T16:47:07.958Z,11.73
2019-02-25T16:49:39.007Z,10.50
2019-02-25T16:52:08.713Z,8.93
2019-02-25T16:54:38.307Z,12.73
2019-02-25T16:57:07.947Z,9.27
2019-02-25T16:59:38.203Z,10.55
2019-02-25T17:02:11.912Z,8.97
2019-02-25T17:04:39.175Z,9.27
2019-02-25T17:07:08.771Z,9.17
2019-02-25T17:09:39.187Z,9.47
2019-02-25T17:12:09.860Z,9.53
2019-02-25T17:14:40.928Z,10.00
2019-02-25T17:17:12.236Z,9.83
2019-02-25T17:19:42.562Z,11.03
2019-02-25T17:22:12.302Z,11.37
2019-02-25T17:24:42.536Z,12.33
2019-02-25T17:27:14.181Z,12.20
2019-02-25T17:29:44.615Z,11.40
2019-02-25T17:32:15.046Z,11.00
2019-02-25T17:34:46.381Z,9.93
2019-02-25T17:37:17.233Z,8.83
2019-02-25T17:39:46.957Z,12.73
2019-02-25T17:42:16.603Z,11.07
2019-02-25T17:44:47.187Z,10.53
2019-02-25T17:47:24.503Z,12.50
2019-02-25T17:49:49.239Z,12.50
2019-02-25T17:52:21.277Z,12.93
2019-02-25T17:54:52.311Z,13.10
2019-02-25T17:57:22.266Z,15.87
2019-02-25T17:59:52.837Z,18.83
2019-02-25T18:02:23.354Z,17.77
2019-02-25T18:04:53.957Z,19.10
2019-02-25T18:07:25.788Z,18.80
2019-02-25T18:09:56.112Z,21.67
2019-02-25T18:12:29.293Z,22.10
2019-02-25T18:14:59.000Z,20.80
2019-02-25T18:17:28.976Z,22.03
2019-02-25T18:19:59.199Z,22.70
2019-02-25T18:22:30.331Z,22.77
2019-02-25T18:25:04.445Z,20.87
2019-02-25T18:27:34.955Z,21.60
2019-02-25T18:30:04.543Z,21.43
2019-02-25T18:32:35.378Z,21.07
2019-02-25T18:35:07.037Z,23.67
2019-02-25T18:37:37.689Z,23.13
2019-02-25T18:40:09.896Z,22.17
2019-02-25T18:42:41.358Z,25.13
2019-02-25T18:45:13.641Z,25.37
2019-02-25T18:47:45.403Z,25.63
2019-02-25T18:50:19.943Z,25.73
2019-02-25T18:52:50.256Z,24.43
2019-02-25T18:55:20.727Z,24.23
2019-02-25T18:57:52.364Z,24.80
2019-02-25T19:00:28.388Z,24.70
2019-02-25T19:02:58.686Z,26.07
2019-02-25T19:05:30.980Z,24.20
2019-02-25T19:08:00.598Z,25.43
2019-02-25T19:10:30.282Z,24.97
2019-02-25T19:13:01.010Z,23.17
2019-02-25T19:15:31.527Z,22.60
2019-02-25T19:18:01.232Z,23.03
2019-02-25T19:20:31.618Z,23.23
2019-02-25T19:23:02.788Z,24.03
2019-02-25T19:25:32.625Z,22.70
2019-02-25T19:28:02.943Z,23.00
2019-02-25T19:30:34.514Z,22.80
2019-02-25T19:33:10.859Z,24.53
2019-02-25T19:35:39.035Z,23.83
2019-02-25T19:38:10.083Z,23.23
2019-02-25T19:40:40.859Z,22.63
2019-02-25T19:43:11.305Z,22.77
2019-02-25T19:45:42.961Z,21.87
2019-02-25T19:48:12.749Z,21.73
2019-02-25T19:50:50.705Z,21.90
2019-02-25T19:53:17.199Z,20.40
2019-02-25T19:55:48.526Z,19.53
2019-02-25T19:58:17.630Z,20.67
2019-02-25T20:00:50.730Z,18.93
2019-02-25T20:03:19.643Z,18.52
2019-02-25T20:05:51.935Z,19.27
2019-02-25T20:08:21.197Z,17.70
2019-02-25T20:10:54.324Z,19.20
2019-02-25T20:13:22.767Z,18.20
2019-02-25T20:15:53.245Z,18.47
2019-02-25T20:18:23.531Z,18.70
2019-02-25T20:20:54.951Z,17.90
2019-02-25T20:23:26.747Z,17.43
2019-02-25T20:25:57.814Z,18.37
2019-02-25T20:28:28.139Z,18.23
2019-02-25T20:30:58.892Z,18.50
2019-02-25T20:33:31.881Z,18.10
2019-02-25T20:36:01.361Z,18.87
2019-02-25T20:38:32.657Z,18.30
2019-02-25T20:41:03.690Z,18.67
2019-02-25T20:43:34.047Z,18.33
2019-02-25T20:46:05.937Z,18.47
2019-02-25T20:48:35.279Z,18.17
2019-02-25T20:51:06.900Z,19.87
2019-02-25T20:53:37.721Z,19.65
2019-02-25T20:56:08.164Z,20.13
2019-02-25T20:58:38.370Z,20.63
2019-02-25T21:01:11.515Z,19.60
2019-02-25T21:03:43.850Z,21.20
2019-02-25T21:06:14.419Z,20.13
2019-02-25T21:08:45.015Z,20.33
2019-02-25T21:11:16.095Z,20.23
2019-02-25T21:13:45.799Z,19.10
2019-02-25T21:16:16.236Z,19.73
2019-02-25T21:18:46.591Z,21.37
2019-02-25T21:21:17.733Z,19.20
2019-02-25T21:23:47.442Z,20.43
2019-02-25T21:26:17.667Z,19.93
2019-02-25T21:28:47.965Z,20.73
2019-02-25T21:31:20.913Z,18.73
2019-02-25T21:33:52.291Z,19.47
2019-02-25T21:36:22.281Z,19.33
2019-02-25T21:38:53.796Z,20.07
2019-02-25T21:41:23.820Z,20.03
2019-02-25T21:43:53.973Z,19.20
2019-02-25T21:46:26.450Z,20.27
2019-02-25T21:48:57.573Z,19.23
2019-02-25T21:51:28.111Z,18.80
2019-02-25T21:54:00.412Z,19.17
2019-02-25T21:56:30.986Z,19.23
2019-02-25T21:59:01.185Z,18.50
2019-02-25T22:01:32.303Z,18.80
2019-02-25T22:04:02.995Z,19.23
2019-02-25T22:06:33.241Z,19.50
2019-02-25T22:09:05.157Z,19.63
2019-02-25T22:11:34.843Z,19.85
2019-02-25T22:14:04.575Z,18.37
2019-02-25T22:16:43.627Z,19.10
2019-02-25T22:19:05.355Z,19.00
2019-02-25T22:21:35.620Z,19.30
2019-02-25T22:24:08.085Z,18.30
2019-02-25T22:26:37.916Z,18.00
2019-02-25T22:29:08.550Z,18.00
2019-02-25T22:31:40.175Z,18.57
2019-02-25T22:34:11.044Z,18.87
2019-02-25T22:36:45.817Z,18.63
2019-02-25T22:39:13.423Z,18.93
2019-02-25T22:41:44.517Z,17.30
2019-02-25T22:44:14.995Z,17.97
2019-02-25T22:46:44.688Z,18.93
2019-02-25T22:49:14.276Z,17.30
2019-02-25T22:51:44.522Z,17.43
2019-02-25T22:54:17.022Z,17.70
2019-02-25T22:56:46.947Z,18.15
2019-02-25T22:59:20.674Z,16.80
2019-02-25T23:01:52.097Z,17.87
2019-02-25T23:04:24.104Z,17.93
2019-02-25T23:06:53.971Z,17.07
2019-02-25T23:09:25.832Z,18.23
2019-02-25T23:11:56.158Z,17.33
2019-02-25T23:14:26.523Z,17.37
2019-02-25T23:16:56.876Z,18.50
2019-02-25T23:19:27.212Z,18.27
2019-02-25T23:21:57.529Z,16.63
2019-02-25T23:24:30.016Z,18.10
2019-02-25T23:26:59.827Z,17.60
2019-02-25T23:29:29.526Z,17.90
2019-02-25T23:32:02.536Z,16.73
2019-02-25T23:34:31.739Z,17.48
2019-02-25T23:37:01.398Z,17.30
2019-02-25T23:39:32.327Z,17.30
2019-02-25T23:42:06.682Z,19.13
2019-02-25T23:44:34.947Z,18.40
2019-02-25T23:47:07.250Z,18.23
2019-02-25T23:49:39.065Z,18.67
2019-02-25T23:52:09.115Z,17.93
2019-02-25T23:54:38.815Z,17.77
2019-02-25T23:57:08.387Z,18.30
2019-02-25T23:59:40.393Z,17.77
